Terminal Aerodrome Forecast
Issued by NWS

Home | Current Version | Previous Version | Text Only | Print | Product List | Glossary On
Versions: 1 2 3 4 5 6 7 8 9 10 11 12 13 14 15 16
000
FTAK31 PAJN 222300
TAFAKT
TAF
PAKT 222320Z 2300/2324 33006KT P6SM VCSH SCT050 BKN070
     FM230300 14005KT P6SM SCT050 BKN070
     FM230900 VRB03KT P6SM SCT050 SCT100
     FM231500 35007KT P6SM SCT050 SCT100
      AMD LTD TO CLD VIS AND WIND 2306/2315=

USA.gov is the U.S. government's official web portal to all federal, state and local government web resources and services.